Hovedside
METAR-TAF:

METAR-TAF

Lufthavner :

Tulcán, Ecuador

breddegrad: 00-48-34N, lengdegrad: 077-42-29W, høyde over havet: 2941 m

Gjeldene værobservasjon

Denne rapporten ble laget for 33 minutter siden, klokken 15:00 UTC
Vind 2 kt fra Øst
Temperatur 14°C
Luftfuktighet 82%
Trykk 1034 hPa
Sikt 10 km eller mer
Spredte skyer i en høyde av 2000 ft
Brutte skyer i en høyde av 8000 ft

METAR: SETU 041500Z 08002KT 9999 SCT020 BKN080 14/11 Q1034

Tid: 10:33 (15:33 UTC)


TAF: fraværende

Værobservasjoner og værvarsel for over 4000 flyplasser (METAR- og TAF-rapporter).

Tilgjengelige stasjoner er representert av de røde og gule prikkene på kartet.

Hold musepekeren over prikken for å se navnet på stasjonen.

Klikk så for å se værobservasjoner og -varsler.

For å forandre kartet kan du klikke på den grønne knappen med svart kryss for å zoome inn, på den grønne knappen med strek for å zoome ut, eller på de grønne pilene for å se tilstøtende kart.


METAR-TAF: